Time;durP1;ratioP1;P1;durP2;ratioP2;P2;SDS_P1;SDS_P2;PMS_P1;PMS_P2;Temp;Humidity;BMP_temperature;BMP_pressure;BME280_temperature;BME280_humidity;BME280_pressure;Samples;Min_cycle;Max_cycle;Signal;HPM_P1;HPM_P2
2022/09/05 00:02:32;;;;;;;8.02;5.60;;;19.60;87.30;;;;;;5003195;28;20103;-72
2022/09/05 00:05:04;;;;;;;6.07;5.10;;;19.60;85.80;;;;;;5034578;28;20073;-72
2022/09/05 00:07:44;;;;;;;;;;;19.60;85.60;;;;;;5033768;28;20057;-72
2022/09/05 00:10:41;;;;;;;6.30;4.95;;;19.50;87.20;;;;;;5029296;28;19916;-72
2022/09/05 00:13:18;;;;;;;10.00;4.88;;;19.50;86.60;;;;;;5034249;28;20045;-72
2022/09/05 00:16:10;;;;;;;5.60;5.07;;;19.40;86.90;;;;;;5034120;28;20046;-72
2022/09/05 00:19:09;;;;;;;6.30;4.85;;;19.40;87.40;;;;;;5031744;28;20502;-72
2022/09/05 00:22:05;;;;;;;7.95;5.13;;;19.40;88.30;;;;;;5010884;28;20386;-72
2022/09/05 00:24:49;;;;;;;7.55;5.20;;;19.30;88.40;;;;;;5034103;28;20080;-72
2022/09/05 00:27:37;;;;;;;5.95;4.97;;;19.30;87.80;;;;;;5033937;28;20482;-72
2022/09/05 00:30:18;;;;;;;6.57;5.22;;;19.30;88.60;;;;;;5033441;28;20037;-72
2022/09/05 00:33:24;;;;;;;7.65;5.57;;;19.30;88.70;;;;;;5034347;28;20033;-71
2022/09/05 00:36:15;;;;;;;5.50;4.80;;;19.30;89.40;;;;;;5016667;28;20588;-72
2022/09/05 00:38:50;;;;;;;5.88;5.18;;;19.30;89.00;;;;;;5033731;28;20141;-72
2022/09/05 00:41:17;;;;;;;7.45;5.63;;;19.30;88.90;;;;;;5034173;28;20061;-72
2022/09/05 00:43:48;;;;;;;7.25;5.63;;;19.30;89.20;;;;;;5016721;28;20052;-71
2022/09/05 00:46:21;;;;;;;8.43;5.22;;;19.30;89.40;;;;;;5033175;28;20045;-72
2022/09/05 00:49:11;;;;;;;6.85;5.13;;;19.20;89.50;;;;;;5023627;28;20490;-72
2022/09/05 00:51:50;;;;;;;6.35;5.50;;;19.20;90.00;;;;;;5016389;28;20076;-72
2022/09/05 00:54:42;;;;;;;6.75;5.60;;;19.20;89.60;;;;;;5033677;28;20130;-73
2022/09/05 00:57:34;;;;;;;7.82;5.57;;;19.20;90.40;;;;;;5013754;28;20445;-72
2022/09/05 01:00:17;;;;;;;7.28;5.80;;;19.20;90.10;;;;;;5048361;28;20049;-72
2022/09/05 01:03:08;;;;;;;6.07;5.35;;;19.20;90.20;;;;;;5033490;28;20084;-72
2022/09/05 01:06:05;;;;;;;5.85;5.28;;;19.10;90.80;;;;;;5032887;28;20041;-72
2022/09/05 01:08:54;;;;;;;7.80;5.72;;;19.00;90.90;;;;;;5032973;28;20060;-72
2022/09/05 01:11:44;;;;;;;6.80;5.65;;;19.00;90.80;;;;;;5033237;28;20478;-72
2022/09/05 01:14:26;;;;;;;6.07;5.43;;;19.00;90.70;;;;;;5032446;28;20120;-72
2022/09/05 01:17:21;;;;;;;7.32;5.32;;;18.90;90.80;;;;;;5033025;28;20056;-72
2022/09/05 01:19:58;;;;;;;6.32;5.35;;;18.90;91.10;;;;;;5015449;28;20441;-72
2022/09/05 01:22:44;;;;;;;8.55;6.15;;;18.90;91.30;;;;;;5016073;28;20049;-72
2022/09/05 01:25:34;;;;;;;7.10;5.50;;;18.90;91.70;;;;;;5033099;28;20045;-72
2022/09/05 01:28:22;;;;;;;7.72;5.68;;;18.80;91.40;;;;;;5032938;28;20102;-72
2022/09/05 01:31:26;;;;;;;8.55;5.32;;;18.80;91.90;;;;;;5032742;28;20045;-73
2022/09/05 01:33:58;;;;;;;6.70;5.40;;;18.80;91.90;;;;;;5031373;28;20053;-71
2022/09/05 01:36:52;;;;;;;6.65;5.20;;;18.70;91.80;;;;;;5032688;28;20096;-72
2022/09/05 01:39:40;;;;;;;6.35;5.70;;;18.70;92.20;;;;;;5032624;28;20088;-72
2022/09/05 01:42:37;;;;;;;7.47;5.95;;;18.60;92.60;;;;;;5032426;28;20060;-72
2022/09/05 01:45:17;;;;;;;9.20;5.90;;;18.60;92.80;;;;;;5032659;28;20068;-72
2022/09/05 01:48:04;;;;;;;7.10;5.70;;;18.60;92.80;;;;;;5031767;28;20103;-72
2022/09/05 01:50:48;;;;;;;7.15;5.35;;;18.60;93.00;;;;;;5032551;28;20076;-72
2022/09/05 01:53:14;;;;;;;7.38;5.78;;;18.60;93.40;;;;;;5032711;28;20052;-72
2022/09/05 01:56:05;;;;;;;6.45;5.30;;;18.50;92.90;;;;;;5031820;28;20041;-72
2022/09/05 01:58:45;;;;;;;6.95;5.43;;;18.50;93.10;;;;;;5032277;28;20044;-72
2022/09/05 02:01:30;;;;;;;6.63;5.50;;;18.50;93.30;;;;;;5030795;28;20438;-72
2022/09/05 02:04:24;;;;;;;6.95;5.68;;;18.40;93.20;;;;;;5031913;28;20049;-71
2022/09/05 02:07:19;;;;;;;7.47;5.63;;;18.40;93.40;;;;;;5032025;28;20049;-71
2022/09/05 02:10:07;;;;;;;6.78;5.68;;;18.40;93.50;;;;;;5015859;28;20248;-72
2022/09/05 02:12:48;;;;;;;7.18;6.03;;;18.40;93.60;;;;;;5030408;28;20041;-71
2022/09/05 02:15:26;;;;;;;7.22;5.57;;;18.30;93.70;;;;;;5030317;28;20052;-72
2022/09/05 02:17:56;;;;;;;7.25;5.60;;;18.30;93.80;;;;;;5032162;28;20111;-72
2022/09/05 02:20:33;;;;;;;6.65;6.00;;;18.20;93.80;;;;;;5032147;28;20042;-71
2022/09/05 02:23:14;;;;;;;8.13;5.60;;;18.20;94.20;;;;;;5031119;28;20041;-71
2022/09/05 02:25:59;;;;;;;7.30;6.13;;;18.10;94.50;;;;;;5028898;28;20042;-71
2022/09/05 02:28:43;;;;;;;7.00;5.95;;;18.10;94.70;;;;;;5021307;28;20386;-72
2022/09/05 02:31:23;;;;;;;8.75;5.75;;;18.10;94.80;;;;;;5012037;28;20049;-72
2022/09/05 02:34:29;;;;;;;7.25;6.13;;;18.10;94.90;;;;;;5027219;28;20044;-71
2022/09/05 02:37:22;;;;;;;7.90;5.65;;;18.00;95.40;;;;;;4999793;28;20053;-72
2022/09/05 02:40:04;;;;;;;6.65;5.68;;;18.00;94.90;;;;;;5015459;28;20045;-71
2022/09/05 02:42:54;;;;;;;6.40;5.75;;;18.00;95.10;;;;;;5028793;28;20099;-72
2022/09/05 02:45:20;;;;;;;6.85;5.80;;;17.90;95.20;;;;;;5014012;28;20119;-72
2022/09/05 02:47:49;;;;;;;8.43;5.75;;;17.90;95.10;;;;;;5027302;28;20510;-72
2022/09/05 02:50:33;;;;;;;6.22;5.63;;;17.80;95.30;;;;;;5011892;28;20070;-72
2022/09/05 02:53:00;;;;;;;6.97;5.75;;;17.80;95.70;;;;;;5025640;28;20116;-72
2022/09/05 02:56:13;;;;;;;8.73;5.93;;;17.70;95.70;;;;;;5031639;28;20049;-72
2022/09/05 02:59:11;;;;;;;8.20;5.78;;;17.70;96.50;;;;;;5017888;28;20111;-72
2022/09/05 03:02:05;;;;;;;6.78;5.30;;;17.60;96.20;;;;;;4998720;28;20061;-72
2022/09/05 03:04:34;;;;;;;7.13;6.00;;;17.70;96.20;;;;;;5027437;28;20056;-73
2022/09/05 03:07:30;;;;;;;8.32;5.88;;;17.50;96.50;;;;;;5042311;28;20094;-72
2022/09/05 03:10:08;;;;;;;6.25;5.65;;;17.50;97.00;;;;;;5030819;28;20049;-72
2022/09/05 03:12:50;;;;;;;6.82;6.13;;;17.30;97.50;;;;;;5031135;28;20098;-72
2022/09/05 03:15:52;;;;;;;10.02;5.97;;;17.30;97.50;;;;;;5030085;28;20347;-71
2022/09/05 03:18:40;;;;;;;6.72;6.00;;;17.30;98.20;;;;;;5024129;28;20089;-72
2022/09/05 03:21:36;;;;;;;7.13;6.30;;;17.20;98.60;;;;;;5035200;28;20390;-71
2022/09/05 03:24:36;;;;;;;7.70;6.05;;;17.20;98.30;;;;;;5035120;28;20041;-72
2022/09/05 03:27:39;;;;;;;7.60;6.05;;;17.10;98.70;;;;;;5031813;28;20053;-72
2022/09/05 03:30:21;;;;;;;8.15;6.40;;;17.10;98.70;;;;;;5035377;28;20053;-72
2022/09/05 03:33:14;;;;;;;7.75;6.00;;;17.10;98.70;;;;;;5017922;28;20099;-72
2022/09/05 03:35:52;;;;;;;6.63;6.03;;;17.10;99.00;;;;;;5032283;28;20057;-72
2022/09/05 03:38:57;;;;;;;7.03;5.63;;;17.10;98.80;;;;;;5035099;28;20045;-72
2022/09/05 03:41:42;;;;;;;8.63;6.43;;;17.10;99.70;;;;;;5034246;28;20041;-72
2022/09/05 03:44:25;;;;;;;7.38;6.68;;;17.10;99.80;;;;;;5034403;28;20389;-72
2022/09/05 03:47:03;;;;;;;7.22;6.10;;;17.10;99.60;;;;;;5029456;28;20184;-73
2022/09/05 03:49:54;;;;;;;6.82;6.10;;;17.00;99.70;;;;;;5033959;28;20103;-72
2022/09/05 03:52:38;;;;;;;7.00;6.30;;;17.00;99.80;;;;;;5034693;28;20080;-72
2022/09/05 03:55:21;;;;;;;7.05;6.35;;;17.00;99.90;;;;;;5034900;28;20033;-73
2022/09/05 03:58:12;;;;;;;7.38;5.97;;;17.00;99.90;;;;;;5032503;28;20417;-72
2022/09/05 04:00:45;;;;;;;7.88;6.28;;;16.90;99.90;;;;;;5034005;28;20033;-73
2022/09/05 04:03:26;;;;;;;8.73;6.50;;;16.90;99.90;;;;;;5034420;28;20133;-72
2022/09/05 04:06:20;;;;;;;7.95;6.65;;;16.90;99.90;;;;;;5034611;28;20291;-72
2022/09/05 04:09:15;;;;;;;7.05;6.35;;;16.80;99.90;;;;;;5031409;28;20054;-72
2022/09/05 04:11:48;;;;;;;8.85;5.82;;;16.80;99.90;;;;;;5034594;28;21253;-72
2022/09/05 04:15:02;;;;;;;6.88;6.05;;;16.70;99.90;;;;;;5033774;28;20045;-72
2022/09/05 04:17:34;;;;;;;7.38;6.28;;;16.70;99.90;;;;;;4959379;28;21525;-72
2022/09/05 04:20:03;;;;;;;6.75;6.05;;;16.70;99.90;;;;;;5012539;28;20049;-72
2022/09/05 04:22:38;;;;;;;7.85;6.15;;;16.70;99.90;;;;;;5034113;28;20091;-72
2022/09/05 04:25:27;;;;;;;8.65;6.15;;;16.60;99.90;;;;;;5034283;28;20493;-72
2022/09/05 04:28:02;;;;;;;6.80;6.20;;;16.60;99.90;;;;;;5015073;28;20058;-72
2022/09/05 04:30:37;;;;;;;6.93;6.25;;;16.50;99.90;;;;;;5034279;28;20041;-72
2022/09/05 04:33:25;;;;;;;7.18;6.25;;;16.50;99.90;;;;;;5033934;28;20135;-72
2022/09/05 04:36:17;;;;;;;8.75;6.35;;;16.50;99.90;;;;;;5033303;28;20239;-72
2022/09/05 04:38:44;;;;;;;8.32;6.82;;;16.50;99.90;;;;;;5013575;28;20050;-72
2022/09/05 04:41:26;;;;;;;7.55;6.50;;;16.50;99.90;;;;;;4980860;28;20478;-72
2022/09/05 04:43:59;;;;;;;;;;;16.50;99.90;;;;;;5026634;28;20048;-72
2022/09/05 04:46:32;;;;;;;9.65;6.88;;;16.40;99.90;;;;;;5032994;28;19923;-72
2022/09/05 04:49:13;;;;;;;7.80;6.15;;;16.50;99.90;;;;;;5032817;28;20474;-73
2022/09/05 04:51:51;;;;;;;8.35;7.10;;;16.50;99.90;;;;;;5033193;28;20046;-72
2022/09/05 04:54:32;;;;;;;7.93;6.90;;;16.50;99.90;;;;;;5033170;28;20054;-72
2022/09/05 04:57:08;;;;;;;7.90;6.90;;;16.40;99.90;;;;;;5032052;28;20038;-72
2022/09/05 04:59:58;;;;;;;8.13;6.95;;;16.40;99.90;;;;;;5033554;28;20045;-72
2022/09/05 05:02:39;;;;;;;7.50;6.40;;;16.40;99.90;;;;;;5033563;28;20394;-71
2022/09/05 05:05:17;;;;;;;;;;;16.30;99.90;;;;;;5033964;28;20103;-72
2022/09/05 05:08:03;;;;;;;7.38;6.25;;;16.40;99.90;;;;;;5031787;28;19924;-72
2022/09/05 05:10:41;;;;;;;8.40;6.60;;;16.40;99.90;;;;;;5033400;28;20053;-72
2022/09/05 05:13:17;;;;;;;7.55;6.22;;;16.40;99.90;;;;;;5032550;28;20045;-72
2022/09/05 05:15:50;;;;;;;7.80;6.85;;;16.40;99.90;;;;;;5033313;28;20047;-72
2022/09/05 05:18:32;;;;;;;8.52;6.97;;;16.40;99.90;;;;;;5033312;28;20064;-72
2022/09/05 05:21:02;;;;;;;;;;;16.40;99.90;;;;;;5033297;28;20183;-72
2022/09/05 05:23:38;;;;;;;9.63;6.88;;;16.40;99.90;;;;;;5016336;28;19947;-72
2022/09/05 05:26:08;;;;;;;8.25;7.35;;;16.40;99.90;;;;;;5016626;28;20132;-72
2022/09/05 05:29:03;;;;;;;9.00;6.63;;;16.40;99.90;;;;;;5032806;28;20135;-72
2022/09/05 05:31:39;;;;;;;13.48;6.88;;;16.40;99.90;;;;;;5032713;28;20446;-72
2022/09/05 05:34:16;;;;;;;7.80;6.93;;;16.40;99.90;;;;;;5033002;28;20041;-72
2022/09/05 05:36:58;;;;;;;12.02;7.13;;;16.40;99.90;;;;;;5031925;28;20052;-72
2022/09/05 05:39:27;;;;;;;9.95;6.90;;;16.40;99.90;;;;;;5031659;28;20171;-72
2022/09/05 05:42:00;;;;;;;7.97;6.70;;;16.40;99.90;;;;;;5015657;28;20052;-72
2022/09/05 05:44:31;;;;;;;8.65;7.20;;;16.50;99.90;;;;;;5015968;28;20587;-72
2022/09/05 05:47:17;;;;;;;7.90;6.95;;;16.50;99.90;;;;;;5032571;28;20053;-72
2022/09/05 05:50:04;;;;;;;11.82;6.68;;;16.60;99.90;;;;;;5015836;28;20049;-72
2022/09/05 05:53:07;;;;;;;7.88;6.82;;;16.60;99.90;;;;;;5032713;28;20049;-72
2022/09/05 05:55:39;;;;;;;10.25;7.10;;;16.70;99.90;;;;;;5031696;28;20473;-72
2022/09/05 05:58:35;;;;;;;8.00;7.13;;;16.70;99.90;;;;;;5032585;28;20048;-72
2022/09/05 06:01:32;;;;;;;8.15;6.80;;;16.80;99.90;;;;;;5030341;28;20393;-72
2022/09/05 06:04:26;;;;;;;8.07;7.18;;;16.80;99.90;;;;;;5012093;28;20124;-73
2022/09/05 06:07:34;;;;;;;11.20;6.90;;;16.80;99.90;;;;;;5013524;28;20058;-72
2022/09/05 06:10:26;;;;;;;9.23;7.18;;;16.80;99.90;;;;;;5005833;28;20049;-72
2022/09/05 06:12:51;;;;;;;;;;;16.90;99.90;;;;;;5014680;28;20041;-72
2022/09/05 06:15:38;;;;;;;7.70;6.97;;;17.00;99.90;;;;;;5032253;28;20238;-72
2022/09/05 06:18:16;;;;;;;9.25;6.70;;;17.10;99.90;;;;;;5015381;28;20072;-72
2022/09/05 06:21:14;;;;;;;8.07;6.57;;;17.10;99.90;;;;;;5031216;28;20072;-74
2022/09/05 06:23:49;;;;;;;9.55;6.90;;;17.20;99.90;;;;;;5023512;28;20060;-75
2022/09/05 06:26:44;;;;;;;10.30;6.85;;;17.40;99.90;;;;;;5031284;28;20049;-74
2022/09/05 06:29:35;;;;;;;8.30;6.90;;;17.40;99.90;;;;;;5032134;28;20096;-75
2022/09/05 06:32:32;;;;;;;7.80;7.10;;;17.50;99.90;;;;;;5031199;28;20045;-74
2022/09/05 06:35:29;;;;;;;7.65;6.95;;;17.60;99.90;;;;;;5031870;28;20049;-74
2022/09/05 06:38:25;;;;;;;7.82;7.03;;;17.70;99.90;;;;;;5015296;28;20037;-74
2022/09/05 06:40:54;;;;;;;9.20;7.22;;;17.60;99.90;;;;;;5026523;28;20038;-74
2022/09/05 06:43:33;;;;;;;8.07;6.95;;;18.00;99.90;;;;;;5031418;28;20045;-75
2022/09/05 06:46:30;;;;;;;8.10;7.28;;;18.20;99.90;;;;;;5031853;28;20164;-75
2022/09/05 06:48:58;;;;;;;8.57;7.38;;;18.30;99.90;;;;;;5011703;28;20049;-74
2022/09/05 06:51:59;;;;;;;7.25;6.55;;;18.40;99.90;;;;;;5013803;28;20132;-75
2022/09/05 06:54:41;;;;;;;7.97;7.10;;;18.50;99.90;;;;;;5030968;28;20121;-75
2022/09/05 06:57:42;;;;;;;9.38;7.30;;;18.60;99.90;;;;;;5031527;28;20064;-72
2022/09/05 07:00:19;;;;;;;8.80;7.00;;;18.70;99.90;;;;;;5030591;28;20098;-73
2022/09/05 07:03:10;;;;;;;10.02;7.57;;;18.90;99.90;;;;;;5025517;28;20050;-73
2022/09/05 07:05:44;;;;;;;13.88;7.45;;;19.10;99.90;;;;;;5030076;28;20049;-72
2022/09/05 07:08:31;;;;;;;9.55;7.13;;;19.20;99.90;;;;;;5029461;28;20053;-72
2022/09/05 07:11:09;;;;;;;8.27;6.80;;;19.40;99.90;;;;;;5045359;28;20096;-71
2022/09/05 07:13:39;;;;;;;7.80;7.00;;;19.50;99.90;;;;;;5028475;28;20037;-72
2022/09/05 07:16:16;;;;;;;7.82;6.65;;;19.70;99.90;;;;;;5028532;28;20132;-73
2022/09/05 07:18:59;;;;;;;7.78;6.97;;;19.80;99.90;;;;;;5012300;28;20045;-72
2022/09/05 07:21:32;;;;;;;8.73;7.03;;;19.90;99.40;;;;;;5031604;28;20124;-72
2022/09/05 07:24:17;;;;;;;10.05;7.18;;;20.00;99.40;;;;;;5029357;28;20045;-73
2022/09/05 07:26:46;;;;;;;10.10;7.15;;;20.10;98.90;;;;;;5025507;28;20086;-72
2022/09/05 07:29:19;;;;;;;7.40;6.60;;;20.20;98.90;;;;;;5027939;28;20081;-72
2022/09/05 07:31:50;;;;;;;7.90;6.88;;;20.40;98.60;;;;;;5031478;28;20421;-72
2022/09/05 07:34:21;;;;;;;;;;;20.50;98.30;;;;;;5029686;28;20164;-73
2022/09/05 07:36:54;;;;;;;9.23;6.80;;;20.50;97.60;;;;;;5027875;28;19923;-72
2022/09/05 07:39:24;;;;;;;8.05;7.22;;;20.70;98.10;;;;;;5030996;28;20053;-72
2022/09/05 07:41:54;;;;;;;7.55;6.90;;;20.80;97.80;;;;;;5030801;28;20060;-72
2022/09/05 07:44:28;;;;;;;11.30;8.02;;;20.90;97.20;;;;;;5026993;28;20121;-72
2022/09/05 07:47:04;;;;;;;8.15;7.35;;;20.90;97.00;;;;;;5027981;28;20366;-72
2022/09/05 07:49:34;;;;;;;9.20;7.75;;;21.00;96.80;;;;;;5030652;28;20095;-72
2022/09/05 07:52:09;;;;;;;8.95;8.05;;;21.10;97.00;;;;;;5029005;28;20052;-72
2022/09/05 07:54:44;;;;;;;9.88;7.90;;;21.30;96.70;;;;;;5026726;28;20482;-72
2022/09/05 07:57:16;;;;;;;9.52;8.05;;;21.50;96.50;;;;;;4982865;28;20099;-73
2022/09/05 07:59:45;;;;;;;9.25;8.32;;;21.60;95.90;;;;;;5011420;28;20088;-72
2022/09/05 08:02:12;;;;;;;10.13;8.00;;;21.70;95.20;;;;;;5028857;28;20104;-72
2022/09/05 08:04:41;;;;;;;8.98;8.07;;;21.80;95.60;;;;;;5027491;28;20386;-72
2022/09/05 08:07:12;;;;;;;9.48;7.53;;;22.00;95.10;;;;;;4997973;28;20058;-72
2022/09/05 08:09:49;;;;;;;10.85;7.75;;;22.10;95.20;;;;;;5013348;28;20572;-73
2022/09/05 08:12:46;;;;;;;8.70;7.82;;;22.30;94.60;;;;;;5027857;28;20056;-72
2022/09/05 08:15:26;;;;;;;10.57;8.20;;;22.50;94.30;;;;;;5031819;28;20099;-72
2022/09/05 08:18:10;;;;;;;10.25;7.95;;;22.60;94.20;;;;;;5034418;28;20478;-72
2022/09/05 08:20:58;;;;;;;8.77;7.97;;;22.80;94.20;;;;;;5031067;28;20046;-73
2022/09/05 08:23:45;;;;;;;8.73;7.90;;;22.90;92.40;;;;;;5033960;28;20392;-73
2022/09/05 08:26:17;;;;;;;8.88;7.90;;;22.90;93.20;;;;;;5034289;28;20494;-72
2022/09/05 08:28:54;;;;;;;8.13;7.32;;;23.00;92.90;;;;;;5034026;28;20124;-72
2022/09/05 08:31:44;;;;;;;8.90;8.00;;;23.10;92.40;;;;;;5015212;28;20048;-72
2022/09/05 08:34:17;;;;;;;10.18;7.40;;;23.30;91.70;;;;;;5027929;28;20080;-73
2022/09/05 08:36:51;;;;;;;9.15;7.53;;;23.40;92.20;;;;;;5030751;28;20041;-72
2022/09/05 08:39:28;;;;;;;9.43;8.05;;;23.50;91.70;;;;;;5034047;28;20086;-73
2022/09/05 08:42:24;;;;;;;8.23;7.43;;;23.60;91.50;;;;;;5031812;28;20099;-73
2022/09/05 08:45:18;;;;;;;9.50;8.07;;;23.80;91.50;;;;;;5030683;28;20080;-72
2022/09/05 08:48:11;;;;;;;8.23;7.40;;;23.90;90.60;;;;;;5030547;28;20041;-72
2022/09/05 08:51:05;;;;;;;8.60;7.80;;;24.10;90.90;;;;;;5030755;28;20061;-72
2022/09/05 08:53:53;;;;;;;8.40;7.60;;;24.30;90.50;;;;;;5042486;28;20497;-72
2022/09/05 08:56:57;;;;;;;10.77;8.07;;;24.40;88.70;;;;;;5033488;28;20474;-73
2022/09/05 08:59:42;;;;;;;10.13;8.10;;;24.60;90.00;;;;;;4996273;28;20042;-72
2022/09/05 09:02:32;;;;;;;10.20;8.10;;;24.60;87.60;;;;;;5014987;28;20050;-73
2022/09/05 09:05:20;;;;;;;10.60;8.27;;;24.70;89.20;;;;;;5027802;28;20049;-73
2022/09/05 09:07:55;;;;;;;9.15;7.28;;;24.70;86.50;;;;;;5014144;28;20124;-72
2022/09/05 09:10:30;;;;;;;8.80;7.45;;;24.70;88.50;;;;;;5027478;28;20135;-72
2022/09/05 09:13:17;;;;;;;11.80;8.38;;;24.80;88.10;;;;;;5030130;28;20045;-72
2022/09/05 09:16:03;;;;;;;7.05;6.35;;;24.90;86.90;;;;;;5034948;28;20124;-72
2022/09/05 09:18:58;;;;;;;6.95;6.10;;;24.90;86.20;;;;;;5041566;28;20080;-72
2022/09/05 09:21:27;;;;;;;7.30;6.55;;;25.10;87.20;;;;;;5029533;28;20167;-72
2022/09/05 09:24:20;;;;;;;8.70;7.85;;;25.10;87.10;;;;;;5031068;28;20792;-73
2022/09/05 09:27:07;;;;;;;6.13;5.53;;;25.20;84.50;;;;;;5029744;28;20551;-72
2022/09/05 09:29:38;;;;;;;8.00;5.20;;;25.20;84.00;;;;;;5016252;28;20490;-73
2022/09/05 09:32:14;;;;;;;9.63;5.00;;;25.40;85.30;;;;;;5016502;28;20096;-73
2022/09/05 09:34:50;;;;;;;10.73;5.43;;;25.60;85.50;;;;;;5029222;28;20072;-73
2022/09/05 09:37:36;;;;;;;20.05;5.85;;;25.80;85.00;;;;;;5030945;28;20397;-73
2022/09/05 09:40:11;;;;;;;6.90;5.10;;;25.90;83.40;;;;;;5026849;28;20053;-73
2022/09/05 09:42:50;;;;;;;6.05;5.00;;;26.10;83.50;;;;;;5028786;28;20045;-73
2022/09/05 09:45:40;;;;;;;5.85;4.70;;;26.30;83.10;;;;;;5041783;28;20038;-73
2022/09/05 09:48:09;;;;;;;7.97;5.32;;;26.50;81.70;;;;;;5012985;28;20052;-73
2022/09/05 09:50:37;;;;;;;9.40;4.85;;;26.60;81.40;;;;;;5039714;28;20049;-73
2022/09/05 09:53:41;;;;;;;5.03;4.50;;;26.70;80.80;;;;;;5022752;28;20042;-74
2022/09/05 09:56:13;;;;;;;8.85;5.20;;;26.80;78.40;;;;;;5038979;28;20509;-73
2022/09/05 09:59:01;;;;;;;6.03;5.05;;;26.90;78.90;;;;;;5026658;28;20156;-73
2022/09/05 10:01:53;;;;;;;6.50;4.90;;;27.10;77.20;;;;;;5021623;28;20045;-73
2022/09/05 10:04:43;;;;;;;5.53;5.00;;;27.30;76.40;;;;;;5039930;28;20053;-73
2022/09/05 10:07:35;;;;;;;5.45;4.95;;;27.30;76.60;;;;;;5027196;28;20103;-73
2022/09/05 10:10:39;;;;;;;6.90;5.07;;;27.50;75.80;;;;;;5048141;28;20049;-73
2022/09/05 10:13:28;;;;;;;8.75;5.75;;;27.60;74.00;;;;;;5032116;28;20072;-72
2022/09/05 10:16:16;;;;;;;5.45;4.80;;;27.70;76.00;;;;;;5028609;28;20088;-73
2022/09/05 10:19:12;;;;;;;8.65;5.07;;;27.80;75.10;;;;;;5011747;28;20069;-73
2022/09/05 10:22:03;;;;;;;8.75;4.72;;;27.90;73.50;;;;;;5026164;28;20088;-73
2022/09/05 10:24:47;;;;;;;8.30;4.70;;;28.10;73.90;;;;;;5024464;28;20049;-72
2022/09/05 10:27:22;;;;;;;5.10;4.60;;;28.20;71.00;;;;;;5044582;28;20518;-73
2022/09/05 10:30:06;;;;;;;6.30;4.93;;;28.30;71.60;;;;;;5031555;28;20102;-72
2022/09/05 10:32:42;;;;;;;5.93;5.07;;;28.40;71.30;;;;;;5047427;28;20394;-72
2022/09/05 10:35:23;;;;;;;7.13;5.13;;;28.50;70.60;;;;;;5027034;28;20072;-73
2022/09/05 10:38:15;;;;;;;5.82;5.18;;;28.60;70.60;;;;;;5030251;28;20440;-72
2022/09/05 10:40:50;;;;;;;5.70;4.68;;;28.80;71.50;;;;;;5029169;28;20049;-72
2022/09/05 10:43:29;;;;;;;6.72;4.93;;;28.90;71.70;;;;;;5028960;28;20044;-72
2022/09/05 10:46:23;;;;;;;5.38;4.55;;;28.90;69.30;;;;;;5029824;28;20104;-72
2022/09/05 10:48:57;;;;;;;7.30;5.07;;;29.00;70.20;;;;;;5039586;28;20500;-72
2022/09/05 10:52:25;;;;;;;6.50;3.80;;;29.10;67.20;;;;;;5024460;28;20073;-72
2022/09/05 10:55:03;;;;;;;5.70;5.10;;;29.20;66.80;;;;;;4981935;28;20073;-72
2022/09/05 10:57:29;;;;;;;8.05;5.30;;;29.10;68.90;;;;;;5029418;28;20143;-73
2022/09/05 11:00:23;;;;;;;6.40;5.60;;;29.20;68.80;;;;;;5048476;28;20135;-72
2022/09/05 11:02:56;;;;;;;6.75;4.25;;;29.20;68.40;;;;;;5046100;28;20077;-72
2022/09/05 11:05:25;;;;;;;5.70;3.90;;;29.30;67.40;;;;;;5031511;28;20049;-72
2022/09/05 11:08:08;;;;;;;6.05;3.97;;;29.40;68.20;;;;;;5014316;28;20490;-72
2022/09/05 11:11:02;;;;;;;4.45;3.90;;;29.50;67.60;;;;;;5031563;28;20045;-72
2022/09/05 11:13:53;;;;;;;4.43;3.90;;;29.70;66.90;;;;;;5027981;28;20034;-72
2022/09/05 11:16:39;;;;;;;4.57;3.95;;;29.70;65.30;;;;;;5028015;28;20052;-72
2022/09/05 11:19:27;;;;;;;4.45;4.05;;;29.80;65.60;;;;;;5015051;28;20128;-72
2022/09/05 11:22:03;;;;;;;6.38;4.00;;;30.00;65.10;;;;;;5011377;28;20567;-73
2022/09/05 11:24:43;;;;;;;5.15;4.00;;;30.10;64.70;;;;;;5023588;28;20094;-72
2022/09/05 11:27:53;;;;;;;8.23;4.82;;;30.20;62.90;;;;;;5025418;28;20042;-73
2022/09/05 11:30:36;;;;;;;4.97;4.28;;;30.30;62.20;;;;;;4952690;28;20633;-72
2022/09/05 11:33:36;;;;;;;7.10;4.30;;;30.30;62.80;;;;;;5007816;28;20433;-72
2022/09/05 11:36:11;;;;;;;5.57;4.30;;;30.40;63.00;;;;;;5031746;28;20037;-72
2022/09/05 11:38:52;;;;;;;5.90;4.03;;;30.60;62.80;;;;;;5018458;28;20179;-73
2022/09/05 11:41:20;;;;;;;;;;;30.70;62.50;;;;;;5018194;28;20462;-72
2022/09/05 11:44:06;;;;;;;9.82;4.75;;;30.80;62.40;;;;;;5034965;28;19944;-73
2022/09/05 11:47:14;;;;;;;5.55;4.47;;;31.10;61.80;;;;;;5018625;28;20371;-72
2022/09/05 11:50:07;;;;;;;4.25;3.83;;;31.30;60.70;;;;;;4977779;28;20133;-74
2022/09/05 11:52:51;;;;;;;6.78;3.95;;;31.20;60.20;;;;;;5031697;28;20033;-72
2022/09/05 11:55:45;;;;;;;6.60;3.80;;;31.20;61.20;;;;;;5032644;28;20485;-72
2022/09/05 11:58:47;;;;;;;3.65;3.30;;;31.30;59.20;;;;;;5033582;28;20056;-72
2022/09/05 12:01:27;;;;;;;4.65;2.95;;;31.50;58.50;;;;;;5032451;28;20046;-73
2022/09/05 12:04:34;;;;;;;4.35;3.20;;;31.70;59.50;;;;;;5029012;28;20061;-73
2022/09/05 12:07:36;;;;;;;5.05;3.17;;;32.00;59.50;;;;;;5007315;28;20061;-73
2022/09/05 12:10:08;;;;;;;5.40;3.35;;;32.40;58.20;;;;;;5022983;28;20073;-73
2022/09/05 12:12:46;;;;;;;4.07;3.55;;;32.60;58.30;;;;;;5003022;28;20075;-73
2022/09/05 12:15:21;;;;;;;4.93;3.88;;;32.70;57.70;;;;;;5032895;28;20045;-73
2022/09/05 12:18:11;;;;;;;5.72;3.47;;;33.00;56.60;;;;;;5034136;28;20045;-73
2022/09/05 12:20:46;;;;;;;4.15;3.17;;;33.30;54.80;;;;;;5033388;28;20096;-73
2022/09/05 12:23:17;;;;;;;5.75;3.17;;;33.40;54.00;;;;;;5028906;28;20075;-73
2022/09/05 12:26:09;;;;;;;3.72;3.20;;;33.40;56.60;;;;;;5032092;28;20091;-73
2022/09/05 12:28:49;;;;;;;4.05;3.25;;;33.50;54.90;;;;;;5034120;28;20049;-74
2022/09/05 12:31:39;;;;;;;4.47;3.03;;;33.60;54.50;;;;;;5007108;28;20506;-73
2022/09/05 12:34:12;;;;;;;3.47;3.17;;;33.90;54.30;;;;;;5013596;28;20045;-74
2022/09/05 12:36:42;;;;;;;6.00;3.45;;;34.00;54.70;;;;;;5012727;28;20041;-73
2022/09/05 12:39:39;;;;;;;3.63;3.10;;;34.20;53.30;;;;;;5030484;28;20045;-74
2022/09/05 12:42:21;;;;;;;5.63;3.28;;;34.60;51.70;;;;;;5028401;28;20401;-73
2022/09/05 12:45:08;;;;;;;5.60;2.97;;;34.50;51.20;;;;;;5029210;28;20501;-73
2022/09/05 12:47:54;;;;;;;3.10;2.88;;;34.90;52.30;;;;;;5012940;28;20050;-73
2022/09/05 12:50:24;;;;;;;4.97;3.58;;;35.20;50.30;;;;;;5030787;28;20045;-73
2022/09/05 12:52:54;;;;;;;;;;;34.80;51.30;;;;;;4998689;28;20182;-74
2022/09/05 12:55:26;;;;;;;3.30;3.00;;;34.20;50.00;;;;;;5017018;28;19991;-73
2022/09/05 12:58:00;;;;;;;3.53;3.22;;;34.40;51.60;;;;;;5029315;28;20052;-73
2022/09/05 13:00:26;;;;;;;6.43;2.92;;;34.20;51.20;;;;;;5031056;28;20531;-73
2022/09/05 13:03:02;;;;;;;6.28;3.22;;;34.50;51.20;;;;;;5027516;28;20556;-73
2022/09/05 13:05:57;;;;;;;5.93;3.40;;;34.80;50.30;;;;;;5013085;28;20363;-73
2022/09/05 13:08:29;;;;;;;5.72;3.28;;;35.20;49.30;;;;;;5029149;28;20053;-73
2022/09/05 13:10:58;;;;;;;7.30;3.72;;;34.80;49.00;;;;;;5031043;28;20184;-73
2022/09/05 13:13:38;;;;;;;3.15;2.88;;;34.60;49.30;;;;;;5033529;28;20068;-74
2022/09/05 13:16:08;;;;;;;4.60;3.10;;;34.40;49.10;;;;;;5019918;28;20379;-73
2022/09/05 13:18:41;;;;;;;4.82;2.80;;;34.40;50.00;;;;;;5033423;28;20367;-73
2022/09/05 13:21:25;;;;;;;3.85;3.10;;;34.60;49.40;;;;;;5030905;28;20135;-73
2022/09/05 13:24:11;;;;;;;3.33;3.13;;;35.20;48.20;;;;;;5031320;28;20045;-73
2022/09/05 13:26:39;;;;;;;5.25;3.08;;;35.70;48.40;;;;;;5026623;28;20045;-73
2022/09/05 13:29:17;;;;;;;3.10;2.90;;;36.70;47.80;;;;;;5033240;28;20382;-74
2022/09/05 13:31:51;;;;;;;4.60;3.13;;;37.20;46.50;;;;;;5031567;28;20107;-73
2022/09/05 13:34:25;;;;;;;3.65;2.90;;;37.60;46.00;;;;;;5016652;28;20135;-73
2022/09/05 13:37:06;;;;;;;3.13;2.90;;;38.20;43.80;;;;;;5027392;28;20045;-74
2022/09/05 13:39:58;;;;;;;3.92;3.00;;;38.60;44.30;;;;;;5027901;28;20044;-74
2022/09/05 13:42:31;;;;;;;5.68;3.25;;;38.30;43.20;;;;;;5015925;28;20037;-74
2022/09/05 13:44:59;;;;;;;4.05;3.00;;;37.80;43.00;;;;;;5047526;28;20103;-73
2022/09/05 13:47:41;;;;;;;5.68;3.22;;;37.50;43.60;;;;;;5008165;28;20482;-73
2022/09/05 13:50:25;;;;;;;3.42;3.03;;;37.20;43.70;;;;;;5029964;28;20056;-73
2022/09/05 13:53:25;;;;;;;3.10;2.85;;;37.20;43.80;;;;;;5029017;28;20044;-73
2022/09/05 13:55:57;;;;;;;4.50;3.20;;;37.20;43.90;;;;;;5032795;28;20077;-73
2022/09/05 13:58:49;;;;;;;7.65;3.10;;;36.60;44.30;;;;;;5020239;28;20478;-73
2022/09/05 14:01:33;;;;;;;5.75;3.15;;;36.50;44.40;;;;;;5030959;28;20133;-73
2022/09/05 14:04:41;;;;;;;4.35;2.88;;;36.70;45.30;;;;;;5027370;28;20429;-73
2022/09/05 14:07:46;;;;;;;6.75;3.00;;;37.30;42.90;;;;;;5029660;28;20103;-73
2022/09/05 14:10:22;;;;;;;2.95;2.70;;;37.50;43.00;;;;;;5030115;28;20121;-72
2022/09/05 14:12:50;;;;;;;3.78;2.65;;;37.50;42.70;;;;;;5029918;28;20033;-73